MSD YBCS-YBCS
Flight info
| Callsign | MSD |
|---|---|
| Flight time | 0h 11m |
| Altitude | 1000 |
| Route | GNIS GREEN ISLAND FERRY OPS |
| Aircraft | H160/L-SBDGRY/S |
Departure
| Time | 2026-04-27 10:17 |
|---|---|
| Airport | Cairns International Airport (YBCS) |
Arrival
| Time | 2026-04-27 10:28 |
|---|---|
| Airport | Cairns International Airport (YBCS) |
| Time | Latitude | Longitude | Altitude | Speed | Heading |
|---|---|---|---|---|---|
| 2026-04-27 10:00 | -16.88838 | 145.75201 | 12 ft | 0 kts | 341° |
| 2026-04-27 10:08 | -16.88830 | 145.75198 | 13 ft | 4 kts | 337° |
| 2026-04-27 10:08 | -16.88820 | 145.75197 | 94 ft | 2 kts | 353° |
| 2026-04-27 10:08 | -16.88737 | 145.75204 | 187 ft | 43 kts | 6° |
| 2026-04-27 10:08 | -16.88313 | 145.75326 | 254 ft | 70 kts | 23° |
| 2026-04-27 10:09 | -16.87845 | 145.75524 | 375 ft | 86 kts | 40° |
| 2026-04-27 10:09 | -16.87540 | 145.76092 | 499 ft | 88 kts | 84° |
| 2026-04-27 10:09 | -16.87366 | 145.76719 | 505 ft | 92 kts | 77° |
| 2026-04-27 10:09 | -16.87091 | 145.77308 | 507 ft | 90 kts | 66° |
| 2026-04-27 10:10 | -16.86740 | 145.77923 | 478 ft | 116 kts | 62° |
| 2026-04-27 10:10 | -16.86237 | 145.78717 | 490 ft | 150 kts | 63° |
| 2026-04-27 10:10 | -16.85590 | 145.79644 | 532 ft | 157 kts | 62° |
| 2026-04-27 10:10 | -16.84903 | 145.80547 | 517 ft | 163 kts | 58° |
| 2026-04-27 10:11 | -16.84190 | 145.81417 | 529 ft | 155 kts | 59° |
| 2026-04-27 10:11 | -16.83420 | 145.82284 | 516 ft | 166 kts | 54° |
| 2026-04-27 10:11 | -16.82615 | 145.83118 | 527 ft | 160 kts | 55° |
| 2026-04-27 10:11 | -16.81797 | 145.83910 | 511 ft | 163 kts | 50° |
| 2026-04-27 10:12 | -16.80903 | 145.84702 | 516 ft | 174 kts | 48° |
| 2026-04-27 10:12 | -16.80044 | 145.85408 | 532 ft | 165 kts | 44° |
| 2026-04-27 10:12 | -16.79124 | 145.86116 | 503 ft | 171 kts | 43° |
| 2026-04-27 10:12 | -16.78130 | 145.86826 | 529 ft | 169 kts | 46° |
| 2026-04-27 10:13 | -16.77317 | 145.87660 | 525 ft | 162 kts | 56° |
| 2026-04-27 10:13 | -16.76772 | 145.88657 | 517 ft | 157 kts | 69° |
| 2026-04-27 10:13 | -16.76469 | 145.89755 | 512 ft | 158 kts | 79° |
| 2026-04-27 10:13 | -16.76295 | 145.90885 | 511 ft | 158 kts | 85° |
| 2026-04-27 10:14 | -16.76242 | 145.92028 | 512 ft | 156 kts | 97° |
| 2026-04-27 10:14 | -16.76242 | 145.93122 | 512 ft | 148 kts | 99° |
| 2026-04-27 10:14 | -16.76250 | 145.94190 | 531 ft | 139 kts | 98° |
| 2026-04-27 10:14 | -16.76237 | 145.95112 | 518 ft | 120 kts | 94° |
| 2026-04-27 10:15 | -16.76146 | 145.95904 | 449 ft | 95 kts | 94° |
| 2026-04-27 10:15 | -16.76044 | 145.96542 | 281 ft | 84 kts | 90° |
| 2026-04-27 10:15 | -16.75950 | 145.97028 | 213 ft | 44 kts | 89° |
| 2026-04-27 10:15 | -16.75899 | 145.97240 | 125 ft | 23 kts | 73° |
| 2026-04-27 10:16 | -16.75947 | 145.97332 | 173 ft | 10 kts | 73° |
| 2026-04-27 10:16 | -16.75994 | 145.97403 | 194 ft | 5 kts | 73° |
| 2026-04-27 10:16 | -16.75995 | 145.97403 | 252 ft | 1 kts | 62° |
| 2026-04-27 10:16 | -16.75993 | 145.97406 | 382 ft | 1 kts | 304° |
| 2026-04-27 10:17 | -16.75990 | 145.97368 | 477 ft | 26 kts | 257° |
| 2026-04-27 10:17 | -16.76045 | 145.97006 | 926 ft | 73 kts | 249° |
| 2026-04-27 10:17 | -16.76118 | 145.96369 | 1499 ft | 94 kts | 255° |
| 2026-04-27 10:17 | -16.76164 | 145.95705 | 2224 ft | 90 kts | 255° |
| 2026-04-27 10:18 | -16.76202 | 145.95097 | 2817 ft | 74 kts | 257° |
| 2026-04-27 10:18 | -16.76327 | 145.94616 | 2961 ft | 70 kts | 237° |
| 2026-04-27 10:18 | -16.76636 | 145.94114 | 2761 ft | 108 kts | 231° |
| 2026-04-27 10:18 | -16.77163 | 145.93441 | 1831 ft | 122 kts | 227° |
| 2026-04-27 10:19 | -16.77662 | 145.92800 | 1241 ft | 106 kts | 223° |
| 2026-04-27 10:19 | -16.78058 | 145.92203 | 754 ft | 95 kts | 225° |
| 2026-04-27 10:19 | -16.78360 | 145.91621 | 701 ft | 95 kts | 230° |
| 2026-04-27 10:19 | -16.78629 | 145.90957 | 837 ft | 100 kts | 234° |
| 2026-04-27 10:20 | -16.78900 | 145.90311 | 914 ft | 96 kts | 235° |
| 2026-04-27 10:20 | -16.79165 | 145.89673 | 935 ft | 98 kts | 236° |
| 2026-04-27 10:20 | -16.79329 | 145.88984 | 953 ft | 96 kts | 244° |
| 2026-04-27 10:20 | -16.79421 | 145.88323 | 960 ft | 87 kts | 245° |
| 2026-04-27 10:21 | -16.79550 | 145.87756 | 967 ft | 75 kts | 236° |
| 2026-04-27 10:21 | -16.79672 | 145.87264 | 966 ft | 66 kts | 236° |
| 2026-04-27 10:21 | -16.79743 | 145.86794 | 964 ft | 65 kts | 242° |
| 2026-04-27 10:21 | -16.79834 | 145.86333 | 968 ft | 64 kts | 236° |
| 2026-04-27 10:22 | -16.79943 | 145.85886 | 966 ft | 64 kts | 236° |
| 2026-04-27 10:22 | -16.79999 | 145.85581 | 966 ft | 65 kts | 238° |
| 2026-04-27 10:22 | -16.80082 | 145.84965 | 964 ft | 64 kts | 236° |
| 2026-04-27 10:22 | -16.80175 | 145.84499 | 826 ft | 77 kts | 236° |
| 2026-04-27 10:23 | -16.80372 | 145.83930 | 645 ft | 87 kts | 227° |
| 2026-04-27 10:23 | -16.80603 | 145.83362 | 559 ft | 81 kts | 226° |
| 2026-04-27 10:23 | -16.80812 | 145.82825 | 513 ft | 81 kts | 227° |
| 2026-04-27 10:23 | -16.81021 | 145.82246 | 490 ft | 89 kts | 226° |
| 2026-04-27 10:24 | -16.81164 | 145.81839 | 495 ft | 90 kts | 230° |
| 2026-04-27 10:24 | -16.81425 | 145.81272 | 482 ft | 85 kts | 220° |
| 2026-04-27 10:24 | -16.81760 | 145.80761 | 488 ft | 87 kts | 218° |
| 2026-04-27 10:24 | -16.82118 | 145.80254 | 492 ft | 85 kts | 218° |
| 2026-04-27 10:25 | -16.82585 | 145.79619 | 483 ft | 81 kts | 213° |
| 2026-04-27 10:25 | -16.82852 | 145.79343 | 489 ft | 78 kts | 207° |
| 2026-04-27 10:25 | -16.83276 | 145.79012 | 486 ft | 78 kts | 198° |
| 2026-04-27 10:25 | -16.83768 | 145.78690 | 494 ft | 86 kts | 200° |
| 2026-04-27 10:26 | -16.84229 | 145.78320 | 493 ft | 86 kts | 212° |
| 2026-04-27 10:26 | -16.84642 | 145.77907 | 490 ft | 79 kts | 210° |
| 2026-04-27 10:26 | -16.85035 | 145.77491 | 487 ft | 81 kts | 210° |
| 2026-04-27 10:26 | -16.85439 | 145.77103 | 473 ft | 78 kts | 206° |
| 2026-04-27 10:27 | -16.85842 | 145.76754 | 408 ft | 70 kts | 205° |
| 2026-04-27 10:27 | -16.86196 | 145.76460 | 369 ft | 60 kts | 202° |
| 2026-04-27 10:27 | -16.86527 | 145.76190 | 350 ft | 63 kts | 211° |
| 2026-04-27 10:27 | -16.86807 | 145.75846 | 345 ft | 63 kts | 227° |
| 2026-04-27 10:28 | -16.87085 | 145.75470 | 340 ft | 63 kts | 223° |
| 2026-04-27 10:28 | -16.87379 | 145.75167 | 243 ft | 55 kts | 214° |
| 2026-04-27 10:28 | -16.87680 | 145.74960 | 122 ft | 49 kts | 196° |
| 2026-04-27 10:28 | -16.87990 | 145.74932 | 100 ft | 37 kts | 177° |
| 2026-04-27 10:29 | -16.88166 | 145.74958 | 57 ft | 12 kts | 164° |
| 2026-04-27 10:29 | -16.88205 | 145.74973 | 10 ft | 4 kts | 176° |
| 2026-04-27 10:29 | -16.88207 | 145.74953 | 9 ft | 0 kts | 339° |
| 2026-04-27 10:29 | -16.88199 | 145.74950 | 11 ft | 4 kts | 337° |
| 2026-04-27 10:30 | -16.88168 | 145.74935 | 13 ft | 5 kts | 325° |
| 2026-04-27 10:30 | -16.88165 | 145.74919 | 10 ft | 0 kts | 248° |
| 2026-04-27 10:40 | -16.88162 | 145.74919 | 13 ft | 2 kts | 309° |
| 2026-04-27 10:41 | -16.88131 | 145.74908 | 67 ft | 7 kts | 318° |
| 2026-04-27 10:41 | -16.88053 | 145.74856 | 173 ft | 30 kts | 315° |
| 2026-04-27 10:41 | -16.87787 | 145.74607 | 522 ft | 69 kts | 313° |
| 2026-04-27 10:41 | -16.87449 | 145.74256 | 799 ft | 67 kts | 304° |
| 2026-04-27 10:42 | -16.87156 | 145.73836 | 901 ft | 86 kts | 295° |
| 2026-04-27 10:42 | -16.86823 | 145.73168 | 946 ft | 122 kts | 293° |
| 2026-04-27 10:42 | -16.86430 | 145.72245 | 965 ft | 155 kts | 289° |
| 2026-04-27 10:42 | -16.86008 | 145.71115 | 995 ft | 173 kts | 289° |
| 2026-04-27 10:43 | -16.85444 | 145.70005 | 1004 ft | 176 kts | 308° |
| 2026-04-27 10:43 | -16.84426 | 145.69312 | 1005 ft | 177 kts | 343° |
| 2026-04-27 10:43 | -16.83197 | 145.69125 | 1009 ft | 182 kts | 1° |
| 2026-04-27 10:43 | -16.81945 | 145.69100 | 1013 ft | 177 kts | 4° |
| 2026-04-27 10:44 | -16.80720 | 145.69087 | 1008 ft | 178 kts | 3° |
| 2026-04-27 10:44 | -16.79499 | 145.68740 | 1003 ft | 187 kts | 335° |
| 2026-04-27 10:44 | -16.78489 | 145.67920 | 1015 ft | 180 kts | 324° |
| 2026-04-27 10:44 | -16.77405 | 145.67268 | 1006 ft | 181 kts | 339° |
| 2026-04-27 10:45 | -16.76230 | 145.66802 | 1010 ft | 179 kts | 348° |
| 2026-04-27 10:45 | -16.75014 | 145.66481 | 1004 ft | 181 kts | 350° |
| 2026-04-27 10:45 | -16.73813 | 145.66103 | 1013 ft | 182 kts | 343° |
| 2026-04-27 10:45 | -16.72655 | 145.65492 | 1007 ft | 188 kts | 328° |
| 2026-04-27 10:46 | -16.71721 | 145.64586 | 1006 ft | 186 kts | 311° |
| 2026-04-27 10:46 | -16.70970 | 145.63491 | 1009 ft | 185 kts | 303° |
| 2026-04-27 10:46 | -16.70284 | 145.62366 | 1007 ft | 183 kts | 303° |
| 2026-04-27 10:46 | -16.69545 | 145.61310 | 1011 ft | 178 kts | 307° |
| 2026-04-27 10:47 | -16.68740 | 145.60315 | 1007 ft | 182 kts | 309° |
| 2026-04-27 10:47 | -16.67857 | 145.59349 | 1010 ft | 185 kts | 314° |
| 2026-04-27 10:47 | -16.66905 | 145.58431 | 1015 ft | 187 kts | 317° |
| 2026-04-27 10:47 | -16.65889 | 145.57599 | 1016 ft | 185 kts | 325° |
| 2026-04-27 10:48 | -16.64816 | 145.56867 | 1016 ft | 183 kts | 330° |
| 2026-04-27 10:48 | -16.63700 | 145.56235 | 1044 ft | 186 kts | 334° |
| 2026-04-27 10:48 | -16.62554 | 145.55662 | 1401 ft | 179 kts | 337° |
| 2026-04-27 10:48 | -16.61455 | 145.55183 | 1761 ft | 172 kts | 337° |
| 2026-04-27 10:49 | -16.60335 | 145.54752 | 2100 ft | 172 kts | 340° |
| 2026-04-27 10:49 | -16.59184 | 145.54339 | 2279 ft | 176 kts | 342° |
| 2026-04-27 10:49 | -16.58046 | 145.53899 | 2359 ft | 173 kts | 341° |
| 2026-04-27 10:49 | -16.56920 | 145.53443 | 2385 ft | 175 kts | 340° |
| 2026-04-27 10:50 | -16.55794 | 145.52970 | 2403 ft | 175 kts | 339° |
| 2026-04-27 10:50 | -16.54662 | 145.52481 | 2411 ft | 178 kts | 339° |
| 2026-04-27 10:50 | -16.53556 | 145.52001 | 2436 ft | 163 kts | 341° |
| 2026-04-27 10:50 | -16.52521 | 145.51528 | 2404 ft | 165 kts | 332° |
| 2026-04-27 10:51 | -16.51609 | 145.50764 | 2411 ft | 171 kts | 312° |
| 2026-04-27 10:51 | -16.51042 | 145.49732 | 2408 ft | 166 kts | 282° |
| 2026-04-27 10:51 | -16.51116 | 145.48574 | 2413 ft | 159 kts | 245° |
| 2026-04-27 10:51 | -16.51795 | 145.47751 | 2407 ft | 149 kts | 205° |
| 2026-04-27 10:52 | -16.52825 | 145.47681 | 2350 ft | 164 kts | 161° |
| 2026-04-27 10:52 | -16.53748 | 145.48339 | 2447 ft | 156 kts | 141° |
| 2026-04-27 10:52 | -16.54558 | 145.49087 | 2424 ft | 157 kts | 139° |
| 2026-04-27 10:52 | -16.55370 | 145.49869 | 2413 ft | 162 kts | 137° |
| 2026-04-27 10:53 | -16.56174 | 145.50688 | 2419 ft | 162 kts | 136° |
| 2026-04-27 10:53 | -16.57738 | 145.52400 | 2422 ft | 163 kts | 134° |
| 2026-04-27 10:53 | -16.58461 | 145.53235 | 2430 ft | 152 kts | 136° |
| 2026-04-27 10:54 | -16.59162 | 145.54069 | 2415 ft | 153 kts | 135° |
| 2026-04-27 10:54 | -16.59841 | 145.54918 | 2417 ft | 152 kts | 134° |
| 2026-04-27 10:54 | -16.60499 | 145.55783 | 2423 ft | 153 kts | 133° |
| 2026-04-27 10:54 | -16.61174 | 145.56627 | 2452 ft | 146 kts | 138° |
| 2026-04-27 10:55 | -16.61848 | 145.57338 | 2446 ft | 136 kts | 141° |
| 2026-04-27 10:55 | -16.62577 | 145.57981 | 2427 ft | 138 kts | 146° |
| 2026-04-27 10:55 | -16.63357 | 145.58556 | 2425 ft | 137 kts | 150° |
| 2026-04-27 10:55 | -16.64163 | 145.59069 | 2360 ft | 135 kts | 150° |
| 2026-04-27 10:56 | -16.64929 | 145.59621 | 2050 ft | 134 kts | 147° |
| 2026-04-27 10:56 | -16.65629 | 145.60181 | 1725 ft | 120 kts | 144° |
| 2026-04-27 10:56 | -16.66279 | 145.60710 | 1353 ft | 119 kts | 145° |
| 2026-04-27 10:56 | -16.66978 | 145.61185 | 1142 ft | 120 kts | 149° |
| 2026-04-27 10:57 | -16.67684 | 145.61647 | 1047 ft | 122 kts | 148° |
| 2026-04-27 10:57 | -16.68386 | 145.62125 | 1034 ft | 112 kts | 147° |
| 2026-04-27 10:57 | -16.69014 | 145.62544 | 986 ft | 110 kts | 148° |
| 2026-04-27 10:57 | -16.69673 | 145.63010 | 1001 ft | 111 kts | 149° |
| 2026-04-27 10:58 | -16.70301 | 145.63465 | 986 ft | 110 kts | 147° |
| 2026-04-27 10:58 | -16.70909 | 145.63931 | 992 ft | 110 kts | 146° |
| 2026-04-27 10:58 | -16.71521 | 145.64429 | 1004 ft | 114 kts | 143° |
| 2026-04-27 10:58 | -16.72076 | 145.65029 | 1016 ft | 117 kts | 121° |
| 2026-04-27 10:59 | -16.72191 | 145.65873 | 857 ft | 126 kts | 89° |
| 2026-04-27 10:59 | -16.71867 | 145.66724 | 668 ft | 130 kts | 70° |
| 2026-04-27 10:59 | -16.71369 | 145.67518 | 595 ft | 129 kts | 59° |
| 2026-04-27 11:00 | -16.70430 | 145.69132 | 534 ft | 128 kts | 68° |
| 2026-04-27 11:00 | -16.70101 | 145.69990 | 519 ft | 130 kts | 77° |
| 2026-04-27 11:00 | -16.69859 | 145.70869 | 529 ft | 123 kts | 84° |
| 2026-04-27 11:00 | -16.69707 | 145.71773 | 514 ft | 131 kts | 91° |
| 2026-04-27 11:01 | -16.69675 | 145.72692 | 530 ft | 119 kts | 106° |
| 2026-04-27 11:01 | -16.70065 | 145.73398 | 517 ft | 114 kts | 138° |
| 2026-04-27 11:01 | -16.70796 | 145.73761 | 518 ft | 120 kts | 164° |
| 2026-04-27 11:01 | -16.71602 | 145.74003 | 522 ft | 121 kts | 164° |
| 2026-04-27 11:02 | -16.72412 | 145.74212 | 521 ft | 119 kts | 166° |
| 2026-04-27 11:02 | -16.73228 | 145.74388 | 521 ft | 122 kts | 167° |
| 2026-04-27 11:02 | -16.74062 | 145.74535 | 522 ft | 119 kts | 170° |
| 2026-04-27 11:02 | -16.74872 | 145.74637 | 529 ft | 114 kts | 174° |
| 2026-04-27 11:03 | -16.75653 | 145.74686 | 504 ft | 116 kts | 175° |
| 2026-04-27 11:03 | -16.76461 | 145.74696 | 524 ft | 118 kts | 180° |
| 2026-04-27 11:03 | -16.77273 | 145.74666 | 514 ft | 118 kts | 179° |
| 2026-04-27 11:03 | -16.78073 | 145.74603 | 519 ft | 113 kts | 181° |
| 2026-04-27 11:04 | -16.78882 | 145.74526 | 516 ft | 120 kts | 181° |
| 2026-04-27 11:04 | -16.79704 | 145.74495 | 520 ft | 116 kts | 178° |
| 2026-04-27 11:04 | -16.80521 | 145.74548 | 520 ft | 118 kts | 175° |
| 2026-04-27 11:04 | -16.81331 | 145.74532 | 524 ft | 120 kts | 186° |
| 2026-04-27 11:05 | -16.82098 | 145.74287 | 475 ft | 131 kts | 196° |
| 2026-04-27 11:05 | -16.82982 | 145.73900 | 519 ft | 137 kts | 198° |
| 2026-04-27 11:05 | -16.83813 | 145.73627 | 566 ft | 116 kts | 189° |
| 2026-04-27 11:05 | -16.84621 | 145.73579 | 555 ft | 116 kts | 174° |
| 2026-04-27 11:06 | -16.85354 | 145.73700 | 510 ft | 99 kts | 169° |
| 2026-04-27 11:06 | -16.85965 | 145.73884 | 419 ft | 86 kts | 153° |
| 2026-04-27 11:06 | -16.86523 | 145.74130 | 392 ft | 88 kts | 158° |
| 2026-04-27 11:06 | -16.87050 | 145.74357 | 328 ft | 76 kts | 156° |
| 2026-04-27 11:07 | -16.87446 | 145.74561 | 251 ft | 53 kts | 151° |
| 2026-04-27 11:07 | -16.87752 | 145.74712 | 165 ft | 43 kts | 154° |
| 2026-04-27 11:07 | -16.87960 | 145.74824 | 85 ft | 25 kts | 155° |
| 2026-04-27 11:07 | -16.88048 | 145.74900 | 26 ft | 7 kts | 139° |
| 2026-04-27 11:08 | -16.88049 | 145.74906 | 15 ft | 0 kts | 132° |